Atmospheric History
12/08/2018 19:23  to  12/9/2018 19:23
Change End Date:
To complete the export process:
1) Select all of the data below
2) Copy the data to the clipboard
3) Open a word processor such as Notepad
4) Paste the data into the word processor
5) Save the file

Date/Time (MDT), AirTemp, RH, Dewpoint ,AvgWindSpeed, GustWindSpeed, WindDirection, PrecipType, PrecipIntensity, PrecipAccumulation, PrecipRate ,Visibility
12/09/2018 19:22, 29, 52, 14 ,8, 11, S, None, None, ,   ,
12/09/2018 19:19, 29, 53, 14 ,9, 11, S, None, None, ,   ,
12/09/2018 19:09, 29, 51, 14 ,9, 11, S, None, None, ,   ,
12/09/2018 19:07, 29, 51, 14 ,9, 11, S, None, None, ,   ,
12/09/2018 18:59, 30, 51, 14 ,9, 12, S, None, None, ,   ,
12/09/2018 18:52, 30, 49, 14 ,11, 12, S, None, None, ,   ,
12/09/2018 18:49, 31, 49, 14 ,9, 11, S, None, None, ,   ,
12/09/2018 18:39, 31, 48, 14 ,9, 12, S, None, None, ,   ,
12/09/2018 18:37, 31, 48, 14 ,9, 12, S, None, None, ,   ,
12/09/2018 18:29, 31, 49, 15 ,9, 12, S, None, None, ,   ,
12/09/2018 18:22, 31, 50, 15 ,9, 12, S, None, None, ,   ,
12/09/2018 18:19, 31, 50, 15 ,9, 12, S, None, None, ,   ,
12/09/2018 18:09, 29, 57, 15 ,11, 12, S, None, None, ,   ,
12/09/2018 18:07, 29, 57, 15 ,11, 12, S, None, None, ,   ,
12/09/2018 17:59, 29, 57, 16 ,11, 14, S, None, None, ,   ,
12/09/2018 17:52, 30, 57, 17 ,12, 14, S, None, None, ,   ,
12/09/2018 17:49, 30, 57, 17 ,12, 15, S, None, None, ,   ,
12/09/2018 17:39, 31, 57, 18 ,12, 14, S, None, None, ,   ,
12/09/2018 17:37, 31, 57, 18 ,13, 14, S, None, None, ,   ,
12/09/2018 17:29, 32, 57, 18 ,12, 15, S, None, None, ,   ,
12/09/2018 17:22, 32, 58, 19 ,13, 14, S, None, None, ,   ,
12/09/2018 17:18, 32, 58, 19 ,13, 14, S, None, None, ,   ,
12/09/2018 17:08, 32, 58, 19 ,14, 15, S, None, None, ,   ,
12/09/2018 17:07, 32, 60, 19 ,14, 15, S, None, None, ,   ,
12/09/2018 16:58, 32, 60, 20 ,13, 15, S, None, None, ,   ,
12/09/2018 16:52, 33, 59, 20 ,14, 16, S, None, None, ,   ,
12/09/2018 16:48, 33, 58, 20 ,14, 16, S, None, None, ,   ,
12/09/2018 16:38, 30, 67, 21 ,11, 13, S, None, None, ,   ,
12/09/2018 16:37, 30, 67, 21 ,9, 11, S, None, None, ,   ,
12/09/2018 16:28, 30, 70, 22 ,7, 10, S, None, None, ,   ,
12/09/2018 16:22, 31, 69, 22 ,9, 11, S, None, None, ,   ,
12/09/2018 16:18, 31, 69, 22 ,9, 11, SE, None, None, ,   ,
12/09/2018 16:08, 32, 67, 22 ,9, 11, SE, None, None, ,   ,
12/09/2018 16:07, 32, 67, 22 ,10, 11, SE, None, None, ,   ,
12/09/2018 15:58, 33, 64, 22 ,10, 11, S, None, None, ,   ,
12/09/2018 15:52, 34, 62, 22 ,10, 11, S, None, None, ,   ,
12/09/2018 15:48, 34, 61, 22 ,9, 11, S, None, None, ,   ,
12/09/2018 15:38, 36, 58, 22 ,9, 12, S, None, None, ,   ,
12/09/2018 15:37, 36, 58, 22 ,9, 12, S, None, None, ,   ,
12/09/2018 15:28, 37, 57, 23 ,11, 12, S, None, None, ,   ,
12/09/2018 15:22, 38, 50, 22 ,9, 13, S, None, None, ,   ,
12/09/2018 15:18, 39, 46, 20 ,11, 13, S, None, None, ,   ,
12/09/2018 15:08, 40, 45, 21 ,12, 15, S, None, None, ,   ,
12/09/2018 15:08, 40, 45, 21 ,12, 15, S, None, None, ,   ,
12/09/2018 14:58, 40, 45, 21 ,12, 16, S, None, None, ,   ,
12/09/2018 14:52, 41, 44, 21 ,13, 16, S, None, None, ,   ,
12/09/2018 14:48, 41, 44, 21 ,13, 16, S, None, None, ,   ,
12/09/2018 14:38, 41, 43, 20 ,11, 16, S, None, None, ,   ,
12/09/2018 14:37, 41, 42, 20 ,12, 16, S, None, None, ,   ,
12/09/2018 14:28, 41, 41, 19 ,12, 14, S, None, None, ,   ,
12/09/2018 14:22, 41, 42, 20 ,11, 14, S, None, None, ,   ,
12/09/2018 14:18, 41, 42, 20 ,11, 15, S, None, None, ,   ,
12/09/2018 14:07, 40, 43, 19 ,15, 18, S, None, None, ,   ,
12/09/2018 14:07, 40, 43, 20 ,14, 18, S, None, None, ,   ,
12/09/2018 13:57, 40, 43, 19 ,15, 19, S, None, None, ,   ,
12/09/2018 13:52, 40, 43, 20 ,13, 20, S, None, None, ,   ,
12/09/2018 13:47, 40, 43, 19 ,16, 20, S, None, None, ,   ,
12/09/2018 13:37, 40, 44, 20 ,15, 19, S, None, None, ,   ,
12/09/2018 13:37, 40, 44, 20 ,15, 19, S, None, None, ,   ,
12/09/2018 13:27, 40, 45, 20 ,17, 21, S, None, None, ,   ,
12/09/2018 13:22, 40, 43, 20 ,17, 23, S, None, None, ,   ,
12/09/2018 13:17, 40, 43, 20 ,19, 23, S, None, None, ,   ,
12/09/2018 13:07, 40, 45, 20 ,17, 21, S, None, None, ,   ,
12/09/2018 13:07, 40, 45, 20 ,16, 21, S, None, None, ,   ,
12/09/2018 12:57, 40, 47, 21 ,14, 17, S, None, None, ,   ,
12/09/2018 12:52, 40, 50, 22 ,9, 15, S, None, None, ,   ,
12/09/2018 12:47, 39, 50, 22 ,12, 16, S, None, None, ,   ,
12/09/2018 12:37, 37, 51, 21 ,15, 19, S, None, None, ,   ,
12/09/2018 12:37, 38, 52, 22 ,15, 19, SW, None, None, ,   ,
12/09/2018 12:27, 36, 54, 21 ,15, 19, S, None, None, ,   ,
12/09/2018 12:22, 36, 55, 22 ,13, 19, S, None, None, ,   ,
12/09/2018 12:17, 36, 55, 21 ,14, 19, S, None, None, ,   ,
12/09/2018 12:07, 35, 56, 20 ,13, 17, S, None, None, ,   ,
12/09/2018 12:07, 35, 56, 20 ,13, 17, S, None, None, ,   ,
12/09/2018 11:57, 33, 59, 21 ,12, 16, S, None, None, ,   ,
12/09/2018 11:52, 33, 58, 20 ,14, 16, S, None, None, ,   ,
12/09/2018 11:47, 33, 59, 20 ,12, 16, S, None, None, ,   ,
12/09/2018 11:37, 32, 60, 20 ,12, 16, S, None, None, ,   ,
12/09/2018 11:37, 32, 60, 20 ,11, 16, S, None, None, ,   ,
12/09/2018 11:27, 32, 60, 19 ,12, 15, S, None, None, ,   ,
12/09/2018 11:22, 31, 61, 19 ,12, 14, S, None, None, ,   ,
12/09/2018 11:17, 31, 62, 19 ,12, 15, S, None, None, ,   ,
12/09/2018 11:07, 30, 63, 19 ,12, 16, S, None, None, ,   ,
12/09/2018 11:07, 30, 62, 19 ,12, 16, S, None, None, ,   ,
12/09/2018 10:56, 29, 65, 19 ,12, 16, S, None, None, ,   ,
12/09/2018 10:52, 29, 64, 19 ,12, 15, S, None, None, ,   ,
12/09/2018 10:46, 28, 66, 19 ,12, 16, S, None, None, ,   ,
12/09/2018 10:37, 28, 68, 19 ,11, 15, S, None, None, ,   ,
12/09/2018 10:36, 28, 68, 19 ,11, 15, S, None, None, ,   ,
12/09/2018 10:26, 27, 69, 18 ,13, 15, S, None, None, ,   ,
12/09/2018 10:22, 27, 71, 19 ,12, 15, S, None, None, ,   ,
12/09/2018 10:16, 26, 71, 18 ,13, 15, S, None, None, ,   ,
12/09/2018 10:07, 26, 72, 18 ,11, 15, S, None, None, ,   ,
12/09/2018 10:06, 26, 72, 18 ,12, 15, S, None, None, ,   ,
12/09/2018 09:56, 25, 74, 18 ,12, 15, S, None, None, ,   ,
12/09/2018 09:52, 25, 75, 18 ,12, 14, SE, None, None, ,   ,
12/09/2018 09:46, 25, 78, 19 ,11, 13, SE, None, None, ,   ,
12/09/2018 09:37, 24, 79, 18 ,9, 12, S, None, None, ,   ,
12/09/2018 09:36, 24, 79, 18 ,9, 11, SE, None, None, ,   ,
12/09/2018 09:26, 23, 80, 18 ,8, 10, SE, None, None, ,   ,
12/09/2018 09:22, 22, 80, 17 ,7, 9, SE, None, None, ,   ,
12/09/2018 09:16, 22, 79, 17 ,7, 9, SE, None, None, ,   ,
12/09/2018 09:07, 22, 81, 17 ,7, 9, SE, None, None, ,   ,
12/09/2018 09:06, 22, 82, 17 ,7, 9, SE, None, None, ,   ,
12/09/2018 08:56, 21, 79, 16 ,6, 7, SE, None, None, ,   ,
12/09/2018 08:52, 21, 79, 15 ,6, 7, SE, None, None, ,   ,
12/09/2018 08:46, 20, 79, 15 ,7, 8, SE, None, None, ,   ,
12/09/2018 08:37, 20, 79, 15 ,7, 7, SE, None, None, ,   ,
12/09/2018 08:36, 20, 79, 15 ,7, 7, SE, None, None, ,   ,
12/09/2018 08:26, 20, 78, 14 ,7, 9, SE, None, None, ,   ,
12/09/2018 08:22, 20, 78, 14 ,7, 9, SE, None, None, ,   ,
12/09/2018 08:16, 20, 78, 14 ,8, 9, S, None, None, ,   ,
12/09/2018 08:07, 19, 79, 14 ,9, 10, S, None, None, ,   ,
12/09/2018 08:06, 19, 79, 14 ,9, 10, S, None, None, ,   ,
12/09/2018 07:56, 19, 80, 14 ,9, 11, S, None, None, ,   ,
12/09/2018 07:52, 19, 81, 14 ,10, 11, SE, None, None, ,   ,
12/09/2018 07:46, 19, 81, 14 ,9, 9, SE, None, None, ,   ,
12/09/2018 07:37, 18, 82, 13 ,7, 9, SE, None, None, ,   ,
12/09/2018 07:35, 18, 82, 13 ,7, 9, SE, None, None, ,   ,
12/09/2018 07:25, 18, 82, 13 ,8, 9, SE, None, None, ,   ,
12/09/2018 07:22, 18, 83, 13 ,8, 9, SE, None, None, ,   ,
12/09/2018 07:15, 17, 83, 13 ,9, 9, SE, None, None, ,   ,
12/09/2018 07:07, 17, 84, 13 ,8, 9, SE, None, None, ,   ,
12/09/2018 07:05, 17, 84, 13 ,7, 7, SE, None, None, ,   ,
12/09/2018 06:55, 16, 84, 12 ,7, 7, SE, None, None, ,   ,
12/09/2018 06:52, 16, 83, 12 ,7, 8, SE, None, None, ,   ,
12/09/2018 06:45, 17, 81, 13 ,7, 8, SE, None, None, ,   ,
12/09/2018 06:37, 19, 79, 14 ,7, 8, SE, None, None, ,   ,
12/09/2018 06:35, 19, 79, 14 ,7, 9, S, None, None, ,   ,
12/09/2018 06:25, 18, 81, 13 ,7, 9, S, None, None, ,   ,
12/09/2018 06:22, 18, 81, 13 ,8, 9, S, None, None, ,   ,
12/09/2018 06:15, 18, 82, 13 ,9, 10, S, None, None, ,   ,
12/09/2018 06:07, 18, 82, 13 ,9, 11, S, None, None, ,   ,
12/09/2018 06:05, 18, 82, 13 ,10, 11, S, None, None, ,   ,
12/09/2018 05:55, 18, 86, 14 ,10, 10, S, None, None, ,   ,
12/09/2018 05:52, 17, 88, 13 ,9, 10, S, None, None, ,   ,
12/09/2018 05:45, 16, 86, 13 ,7, 9, S, None, None, ,   ,
12/09/2018 05:37, 16, 88, 13 ,7, 8, S, None, None, ,   ,
12/09/2018 05:35, 16, 88, 13 ,7, 8, S, None, None, ,   ,
12/09/2018 05:25, 15, 87, 12 ,6, 7, SE, None, None, ,   ,
12/09/2018 05:22, 16, 89, 13 ,5, 7, SE, None, None, ,   ,
12/09/2018 05:15, 15, 87, 13 ,7, 8, SE, None, None, ,   ,
12/09/2018 05:07, 16, 86, 13 ,7, 9, SE, None, None, ,   ,
12/09/2018 05:05, 16, 87, 13 ,8, 9, SE, None, None, ,   ,
12/09/2018 04:55, 17, 86, 13 ,7, 7, SE, None, None, ,   ,
12/09/2018 04:52, 16, 88, 13 ,6, 7, SE, None, None, ,   ,
12/09/2018 04:45, 16, 87, 13 ,7, 7, SE, None, None, ,   ,
12/09/2018 04:37, 16, 86, 13 ,7, 7, SE, None, None, ,   ,
12/09/2018 04:34, 16, 86, 13 ,7, 7, SE, None, None, ,   ,
12/09/2018 04:24, 17, 84, 13 ,6, 7, SE, None, None, ,   ,
12/09/2018 04:22, 17, 86, 13 ,6, 6, SE, None, None, ,   ,
12/09/2018 04:14, 16, 86, 13 ,5, 7, SE, None, None, ,   ,
12/09/2018 04:07, 17, 80, 12 ,6, 7, SE, None, None, ,   ,
12/09/2018 04:04, 19, 79, 13 ,6, 6, SE, None, None, ,   ,
12/09/2018 03:54, 18, 82, 13 ,6, 8, SE, None, None, ,   ,
12/09/2018 03:52, 19, 82, 14 ,7, 9, S, None, None, ,   ,
12/09/2018 03:44, 18, 82, 13 ,7, 9, S, None, None, ,   ,
12/09/2018 03:37, 19, 79, 14 ,6, 7, S, None, None, ,   ,
12/09/2018 03:34, 20, 78, 14 ,6, 7, S, None, None, ,   ,
12/09/2018 03:24, 22, 74, 15 ,4, 6, SE, None, None, ,   ,
12/09/2018 03:22, 22, 74, 15 ,4, 7, SE, None, None, ,   ,
12/09/2018 03:14, 20, 83, 16 ,6, 7, S, None, None, ,   ,
12/09/2018 03:07, 19, 83, 14 ,6, 6, S, None, None, ,   ,
12/09/2018 03:04, 19, 83, 14 ,6, 6, S, None, None, ,   ,
12/09/2018 02:54, 19, 81, 14 ,4, 6, S, None, None, ,   ,
12/09/2018 02:52, 19, 82, 15 ,4, 6, S, None, None, ,   ,
12/09/2018 02:44, 19, 82, 15 ,4, 5, SE, None, None, ,   ,
12/09/2018 02:37, 20, 83, 16 ,4, 4, SE, None, None, ,   ,
12/09/2018 02:34, 20, 83, 16 ,3, 4, SE, None, None, ,   ,
12/09/2018 02:24, 20, 81, 15 ,2, 4, SE, None, None, ,   ,
12/09/2018 02:22, 20, 80, 15 ,2, 4, SE, None, None, ,   ,
12/09/2018 02:14, 22, 77, 16 ,3, 4, S, None, None, ,   ,
12/09/2018 02:07, 23, 70, 15 ,2, 5, S, None, None, ,   ,
12/09/2018 02:04, 24, 69, 15 ,3, 5, SW, None, None, ,   ,
12/09/2018 01:54, 23, 72, 15 ,4, 6, SW, None, None, ,   ,
12/09/2018 01:52, 23, 72, 16 ,3, 6, SW, None, None, ,   ,
12/09/2018 01:44, 22, 77, 16 ,3, 4, SW, None, None, ,   ,
12/09/2018 01:37, 22, 77, 15 ,2, 4, S, None, None, ,   ,
12/09/2018 01:34, 22, 78, 16 ,2, 6, S, None, None, ,   ,
12/09/2018 01:24, 22, 74, 16 ,6, 7, SW, None, None, ,   ,
12/09/2018 01:22, 23, 74, 16 ,6, 7, SW, None, None, ,   ,
12/09/2018 01:13, 25, 68, 16 ,2, 7, SW, None, None, ,   ,
12/09/2018 01:07, 26, 67, 17 ,5, 7, SW, None, None, ,   ,
12/09/2018 01:03, 26, 68, 17 ,4, 9, SW, None, None, ,   ,
12/09/2018 00:53, 24, 72, 16 ,3, 6, SW, None, None, ,   ,
12/09/2018 00:52, 24, 73, 17 ,5, 6, SW, None, None, ,   ,
12/09/2018 00:43, 25, 72, 17 ,4, 6, SW, None, None, ,   ,
12/09/2018 00:37, 24, 78, 18 ,4, 4, SW, None, None, ,   ,
12/09/2018 00:33, 23, 78, 17 ,4, 6, SW, None, None, ,   ,
12/09/2018 00:23, 23, 81, 18 ,6, 7, SW, None, None, ,   ,
12/09/2018 00:22, 22, 81, 17 ,6, 7, SW, None, None, ,   ,
12/09/2018 00:13, 21, 83, 17 ,4, 6, S, None, None, ,   ,
12/09/2018 00:07, 22, 82, 17 ,4, 5, S, None, None, ,   ,
12/09/2018 00:03, 22, 81, 17 ,4, 5, S, None, None, ,   ,
12/08/2018 23:53, 22, 79, 17 ,5, 6, S, None, None, ,   ,
12/08/2018 23:52, 23, 79, 17 ,4, 5, S, None, None, ,   ,
12/08/2018 23:43, 23, 78, 17 ,4, 6, S, None, None, ,   ,
12/08/2018 23:37, 24, 77, 18 ,4, 6, SW, None, None, ,   ,
12/08/2018 23:33, 24, 78, 18 ,4, 4, SW, None, None, ,   ,
12/08/2018 23:23, 23, 80, 18 ,4, 4, SW, None, None, ,   ,
12/08/2018 23:22, 22, 81, 17 ,4, 4, SW, None, None, ,   ,
12/08/2018 23:13, 22, 82, 17 ,2, 3, SW, None, None, ,   ,
12/08/2018 23:07, 22, 81, 17 ,2, 3, S, None, None, ,   ,
12/08/2018 23:03, 22, 78, 17 ,2, 2, S, None, None, ,   ,
12/08/2018 22:53, 26, 73, 18 ,1, 2, W, None, None, ,   ,
12/08/2018 22:52, 26, 73, 18 ,1, 2, W, None, None, ,   ,
12/08/2018 22:43, 25, 74, 18 ,1, 2, W, None, None, ,   ,
12/08/2018 22:37, 26, 72, 18 ,2, 3, W, None, None, ,   ,
12/08/2018 22:33, 26, 72, 19 ,2, 3, W, None, None, ,   ,
12/08/2018 22:23, 25, 75, 18 ,2, 3, W, None, None, ,   ,
12/08/2018 22:22, 25, 76, 18 ,2, 3, W, None, None, ,   ,
12/08/2018 22:13, 24, 76, 18 ,2, 3, SW, None, None, ,   ,
12/08/2018 22:07, 24, 75, 18 ,2, 3, SW, None, None, ,   ,
12/08/2018 22:03, 25, 75, 18 ,2, 4, SW, None, None, ,   ,
12/08/2018 21:52, 25, 73, 18 ,3, 4, SW, None, None, ,   ,
12/08/2018 21:52, 25, 73, 18 ,3, 4, SW, None, None, ,   ,
12/08/2018 21:42, 24, 76, 18 ,3, 4, W, None, None, ,   ,
12/08/2018 21:37, 24, 76, 17 ,3, 4, SW, None, None, ,   ,
12/08/2018 21:32, 24, 77, 18 ,4, 6, SW, None, None, ,   ,
12/08/2018 21:22, 22, 81, 17 ,4, 7, W, None, None, ,   ,
12/08/2018 21:22, 22, 81, 17 ,5, 7, W, None, None, ,   ,
12/08/2018 21:12, 22, 78, 16 ,6, 9, NW, None, None, ,   ,
12/08/2018 21:07, 24, 75, 17 ,8, 9, NW, None, None, ,   ,
12/08/2018 21:02, 23, 76, 17 ,9, 9, NW, None, None, ,   ,
12/08/2018 20:52, 25, 74, 18 ,9, 9, NW, None, None, ,   ,
12/08/2018 20:52, 25, 74, 18 ,9, 9, NW, None, None, ,   ,
12/08/2018 20:42, 24, 74, 17 ,7, 8, NW, None, None, ,   ,
12/08/2018 20:37, 24, 74, 18 ,8, 9, NW, None, None, ,   ,
12/08/2018 20:32, 24, 76, 18 ,8, 9, NW, None, None, ,   ,
12/08/2018 20:22, 23, 75, 16 ,6, 7, NW, None, None, ,   ,
12/08/2018 20:22, 23, 75, 16 ,6, 7, NW, None, None, ,   ,
12/08/2018 20:12, 25, 72, 18 ,7, 7, NW, None, None, ,   ,
12/08/2018 20:07, 25, 75, 18 ,7, 7, NW, None, None, ,   ,
12/08/2018 20:02, 23, 77, 17 ,7, 7, NW, None, None, ,   ,
12/08/2018 19:52, 22, 80, 17 ,6, 7, NW, None, None, ,   ,
12/08/2018 19:52, 22, 80, 17 ,6, 7, NW, None, None, ,   ,
12/08/2018 19:42, 23, 76, 17 ,6, 7, NW, None, None, ,   ,
12/08/2018 19:37, 22, 80, 17 ,7, 7, NW, None, None, ,   ,
12/08/2018 19:32, 22, 77, 16 ,6, 7, NW, None, None, ,   ,
Change End Date:

Copyright © 1998-2015 Vaisala, Inc.
All Rights Reserved
Send comments about the data to:
SCAN Web ® is a registered trademark of Vaisala, Inc.
SCAN Web Version 6.0